createdAt,value
2022-11-14T00:01:10.820Z,2.65
2022-11-14T00:16:10.758Z,2.59
2022-11-14T00:31:10.814Z,2.43
2022-11-14T00:46:11.043Z,2.30
2022-11-14T01:01:10.989Z,2.30
2022-11-14T01:16:10.935Z,2.33
2022-11-14T01:31:10.940Z,2.11
2022-11-14T01:46:11.025Z,1.97
2022-11-14T02:01:11.106Z,1.72
2022-11-14T02:16:11.081Z,1.31
2022-11-14T02:31:11.188Z,2.15
2022-11-14T02:46:11.065Z,1.88
2022-11-14T03:01:20.624Z,1.48
2022-11-14T03:16:11.089Z,1.38
2022-11-14T03:31:11.236Z,1.79
2022-11-14T03:46:11.315Z,1.99
2022-11-14T04:01:11.401Z,1.24
2022-11-14T04:16:11.257Z,1.15
2022-11-14T04:31:11.328Z,1.35
2022-11-14T04:46:11.377Z,1.59
2022-11-14T05:01:11.538Z,1.31
2022-11-14T05:16:11.648Z,0.96
2022-11-14T05:31:11.479Z,0.35
2022-11-14T05:46:11.498Z,0.52
2022-11-14T06:01:11.593Z,0.53
2022-11-14T06:16:11.584Z,0.45
2022-11-14T06:31:11.595Z,0.37
2022-11-14T06:46:11.716Z,0.63
2022-11-14T07:01:11.671Z,1.34
2022-11-14T07:16:11.692Z,0.00
2022-11-14T07:31:11.678Z,0.01
2022-11-14T07:46:11.726Z,0.00
2022-11-14T08:01:11.726Z,0.00
2022-11-14T08:16:13.772Z,0.07
2022-11-14T08:31:11.701Z,1.99
2022-11-14T08:46:11.800Z,3.12
2022-11-14T09:01:11.957Z,2.38
2022-11-14T09:16:11.942Z,2.48
2022-11-14T09:31:11.921Z,2.97
2022-11-14T09:46:12.045Z,3.12
2022-11-14T10:01:11.838Z,2.85
2022-11-14T10:16:12.031Z,2.55
2022-11-14T10:31:11.911Z,3.28
2022-11-14T10:46:12.088Z,3.81
2022-11-14T11:01:12.162Z,2.77
2022-11-14T11:16:12.108Z,2.99
2022-11-14T11:31:12.280Z,1.89
2022-11-14T11:46:12.069Z,2.26
2022-11-14T12:01:12.402Z,2.76
2022-11-14T12:16:13.389Z,2.16
2022-11-14T12:31:12.294Z,2.21
2022-11-14T12:46:12.260Z,2.59
2022-11-14T13:01:12.463Z,2.74
2022-11-14T13:16:12.416Z,2.59
2022-11-14T13:31:12.529Z,2.60
2022-11-14T13:46:12.564Z,2.22
2022-11-14T14:01:12.575Z,2.99
2022-11-14T14:16:12.572Z,2.85
2022-11-14T14:31:12.550Z,2.23
2022-11-14T14:46:12.622Z,2.07
2022-11-14T15:01:12.653Z,2.87
2022-11-14T15:16:12.784Z,2.76
2022-11-14T15:31:12.685Z,2.65
2022-11-14T15:46:15.101Z,2.31
2022-11-14T16:01:12.912Z,2.12
2022-11-14T16:16:12.781Z,2.38
2022-11-14T16:31:12.912Z,2.30
2022-11-14T16:46:12.804Z,1.85
2022-11-14T17:01:16.238Z,1.78
2022-11-14T17:16:12.953Z,1.82
2022-11-14T17:31:13.008Z,1.23
2022-11-14T17:46:15.838Z,1.10
2022-11-14T18:01:13.120Z,2.30
2022-11-14T18:16:13.062Z,2.59
2022-11-14T18:31:13.253Z,2.31
2022-11-14T18:46:13.168Z,2.20
2022-11-14T19:01:13.183Z,2.12
2022-11-14T19:16:13.056Z,2.05
2022-11-14T19:31:13.186Z,1.86
2022-11-14T19:46:13.121Z,1.36
2022-11-14T20:01:13.328Z,1.76
2022-11-14T20:16:13.245Z,1.79
2022-11-14T20:31:13.278Z,1.23
2022-11-14T20:46:13.320Z,1.53
2022-11-14T21:01:13.549Z,1.66
2022-11-14T21:16:13.491Z,1.28
2022-11-14T21:31:13.490Z,1.32
2022-11-14T21:46:13.508Z,1.23
2022-11-14T22:01:13.483Z,1.52
2022-11-14T22:16:13.581Z,1.21
2022-11-14T22:31:13.630Z,1.44
2022-11-14T22:46:13.463Z,1.21
2022-11-14T23:01:13.648Z,1.01
2022-11-14T23:16:13.624Z,1.14
2022-11-14T23:31:13.618Z,1.59
2022-11-14T23:46:13.533Z,1.72
